createdAt,value
2023-03-04T00:01:13.276Z,11.10
2023-03-04T00:03:41.038Z,11.10
2023-03-04T00:06:09.438Z,11.10
2023-03-04T00:08:37.426Z,11.10
2023-03-04T00:11:05.204Z,11.10
2023-03-04T00:13:33.213Z,11.10
2023-03-04T00:16:01.100Z,11.10
2023-03-04T00:18:32.186Z,11.10
2023-03-04T00:21:00.307Z,11.00
2023-03-04T00:23:29.068Z,11.00
2023-03-04T00:25:57.531Z,11.00
2023-03-04T00:28:25.615Z,11.00
2023-03-04T00:30:53.804Z,11.00
2023-03-04T00:33:21.942Z,11.00
2023-03-04T00:35:53.097Z,11.00
2023-03-04T00:38:21.515Z,10.90
2023-03-04T00:40:49.179Z,10.90
2023-03-04T00:43:16.917Z,10.90
2023-03-04T00:45:44.561Z,10.80
2023-03-04T00:48:12.827Z,10.80
2023-03-04T00:50:40.412Z,10.80
2023-03-04T00:53:10.419Z,10.80
2023-03-04T00:55:38.844Z,10.80
2023-03-04T00:58:06.777Z,10.70
2023-03-04T01:00:34.514Z,10.70
2023-03-04T01:03:05.203Z,10.70
2023-03-04T01:05:35.084Z,10.70
2023-03-04T01:08:03.232Z,10.70
2023-03-04T01:10:31.101Z,10.60
2023-03-04T01:12:59.732Z,10.60
2023-03-04T01:15:28.059Z,10.60
2023-03-04T01:17:56.472Z,10.60
2023-03-04T01:20:24.556Z,10.60
2023-03-04T01:22:52.199Z,10.60
2023-03-04T01:25:20.178Z,10.60
2023-03-04T01:27:48.101Z,10.60
2023-03-04T01:30:16.290Z,10.60
2023-03-04T01:32:44.364Z,10.60
2023-03-04T01:35:15.548Z,10.60
2023-03-04T01:37:43.494Z,10.60
2023-03-04T01:40:13.035Z,10.60
2023-03-04T01:42:41.270Z,10.60
2023-03-04T01:45:13.117Z,10.60
2023-03-04T01:47:43.949Z,10.60
2023-03-04T01:50:15.843Z,10.60
2023-03-04T01:52:43.577Z,10.60
2023-03-04T01:55:22.873Z,10.60
2023-03-04T01:57:52.059Z,10.60
2023-03-04T02:00:26.564Z,10.60
2023-03-04T02:02:58.004Z,10.70
2023-03-04T02:05:26.858Z,10.70
2023-03-04T02:07:56.379Z,10.70
2023-03-04T02:10:24.537Z,10.70
2023-03-04T02:12:55.204Z,10.70
2023-03-04T02:15:24.448Z,10.70
2023-03-04T02:17:53.053Z,10.70
2023-03-04T02:20:58.569Z,10.70
2023-03-04T02:23:45.782Z,10.70
2023-03-04T02:26:16.749Z,10.80
2023-03-04T02:28:46.205Z,10.80
2023-03-04T02:31:45.359Z,10.80
2023-03-04T02:34:22.640Z,10.80
2023-03-04T02:36:53.278Z,10.80
2023-03-04T02:39:24.695Z,10.70
2023-03-04T02:41:55.490Z,10.80
2023-03-04T02:44:29.955Z,10.80
2023-03-04T02:46:59.203Z,10.80
2023-03-04T02:49:31.498Z,10.80
2023-03-04T02:52:09.997Z,10.80
2023-03-04T02:54:42.802Z,10.80
2023-03-04T02:57:29.346Z,10.80
2023-03-04T02:59:57.567Z,10.80
2023-03-04T03:02:26.840Z,10.80
2023-03-04T03:04:54.953Z,10.70
2023-03-04T03:07:22.806Z,10.80
2023-03-04T03:09:51.064Z,10.70
2023-03-04T03:12:22.263Z,10.70
2023-03-04T03:14:50.901Z,10.70
2023-03-04T03:17:19.629Z,10.70
2023-03-04T03:19:48.015Z,10.60
2023-03-04T03:22:16.342Z,10.60
2023-03-04T03:24:44.316Z,10.60
2023-03-04T03:27:12.290Z,10.50
2023-03-04T03:29:43.421Z,10.50
2023-03-04T03:32:10.853Z,10.50
2023-03-04T03:34:38.826Z,10.40
2023-03-04T03:37:06.387Z,10.40
2023-03-04T03:39:34.561Z,10.40
2023-03-04T03:42:02.692Z,10.40
2023-03-04T03:44:30.402Z,10.30
2023-03-04T03:46:58.449Z,10.30
2023-03-04T03:49:26.663Z,10.30
2023-03-04T03:51:55.142Z,10.20
2023-03-04T03:54:23.330Z,10.30
2023-03-04T03:56:50.973Z,10.20
2023-03-04T03:59:20.074Z,10.20
2023-03-04T04:01:48.357Z,10.20
2023-03-04T04:04:16.821Z,10.10
2023-03-04T04:06:48.345Z,10.10
2023-03-04T04:09:16.449Z,10.00
2023-03-04T04:11:44.475Z,10.00
2023-03-04T04:14:14.063Z,10.00
2023-03-04T04:16:42.088Z,10.00
2023-03-04T04:19:19.849Z,10.10
2023-03-04T04:21:48.570Z,10.10
2023-03-04T04:24:17.158Z,10.00
2023-03-04T04:26:44.649Z,10.00
2023-03-04T04:29:14.760Z,10.00
2023-03-04T04:31:42.977Z,10.00
2023-03-04T04:34:13.862Z,10.00
2023-03-04T04:36:42.795Z,9.90
2023-03-04T04:39:11.144Z,9.90
2023-03-04T04:41:42.421Z,9.90
2023-03-04T04:44:13.929Z,9.90
2023-03-04T04:46:42.720Z,9.90
2023-03-04T04:49:11.818Z,9.90
2023-03-04T04:51:40.490Z,9.90
2023-03-04T04:54:09.750Z,9.90
2023-03-04T04:56:38.850Z,9.90
2023-03-04T04:59:08.831Z,9.90
2023-03-04T05:01:36.720Z,9.80
2023-03-04T05:04:05.166Z,9.80
2023-03-04T05:06:36.025Z,9.80
2023-03-04T05:09:05.040Z,9.80
2023-03-04T05:11:33.305Z,9.70
2023-03-04T05:16:49.565Z,9.70
2023-03-04T05:19:18.286Z,9.70
2023-03-04T05:21:49.713Z,9.70
2023-03-04T05:24:19.378Z,9.80
2023-03-04T05:26:47.459Z,9.80
2023-03-04T05:29:19.072Z,9.80
2023-03-04T05:31:47.358Z,9.80
2023-03-04T05:34:15.760Z,9.80
2023-03-04T05:36:43.705Z,9.80
2023-03-04T05:39:12.583Z,9.70
2023-03-04T05:41:41.052Z,9.70
2023-03-04T05:44:09.662Z,9.70
2023-03-04T05:46:38.379Z,9.70
2023-03-04T05:49:07.099Z,9.70
2023-03-04T05:51:35.037Z,9.60
2023-03-04T05:54:03.617Z,9.60
2023-03-04T05:56:33.666Z,9.70
2023-03-04T05:59:02.084Z,9.70
2023-03-04T06:01:30.835Z,9.70
2023-03-04T06:03:58.963Z,9.60
2023-03-04T06:06:27.032Z,9.60
2023-03-04T06:08:55.326Z,9.70
2023-03-04T06:11:24.037Z,9.60
2023-03-04T06:13:52.205Z,9.60
2023-03-04T06:16:21.213Z,9.60
2023-03-04T06:18:48.998Z,9.60
2023-03-04T06:21:16.885Z,9.60
2023-03-04T06:23:45.824Z,9.50
2023-03-04T06:26:19.868Z,9.60
2023-03-04T06:28:47.655Z,9.60
2023-03-04T06:31:15.609Z,9.60
2023-03-04T06:33:44.677Z,9.70
2023-03-04T06:36:13.272Z,9.60
2023-03-04T06:38:41.247Z,9.60
2023-03-04T06:41:11.624Z,9.70
2023-03-04T06:43:40.779Z,9.70
2023-03-04T06:46:09.429Z,9.70
2023-03-04T06:48:37.633Z,9.80
2023-03-04T06:51:10.146Z,9.80
2023-03-04T06:53:39.189Z,9.80
2023-03-04T06:56:08.450Z,9.80
2023-03-04T06:58:37.108Z,9.80
2023-03-04T07:01:19.939Z,9.90
2023-03-04T07:03:52.215Z,9.90
2023-03-04T07:06:24.203Z,10.00
2023-03-04T07:08:53.715Z,10.00
2023-03-04T07:11:22.421Z,10.00
2023-03-04T07:13:50.943Z,10.00
2023-03-04T07:16:22.455Z,10.10
2023-03-04T07:18:50.882Z,10.10
2023-03-04T07:21:19.864Z,10.20
2023-03-04T07:23:48.240Z,10.20
2023-03-04T07:26:17.733Z,10.20
2023-03-04T07:29:05.572Z,10.30
2023-03-04T07:31:35.089Z,10.30
2023-03-04T07:34:06.499Z,10.30
2023-03-04T07:36:36.503Z,10.30
2023-03-04T07:39:09.486Z,10.40
2023-03-04T07:41:37.893Z,10.40
2023-03-04T07:44:07.988Z,10.50
2023-03-04T07:46:35.802Z,10.50
2023-03-04T07:49:03.674Z,10.60
2023-03-04T07:51:32.156Z,10.60
2023-03-04T07:54:01.834Z,10.60
2023-03-04T07:56:32.380Z,10.70
2023-03-04T07:59:00.950Z,10.70
2023-03-04T08:01:37.944Z,10.70
2023-03-04T08:04:07.913Z,10.80
2023-03-04T08:06:36.005Z,10.80
2023-03-04T08:09:07.991Z,10.90
2023-03-04T08:11:38.175Z,10.90
2023-03-04T08:14:07.510Z,11.00
2023-03-04T08:16:35.524Z,11.00
2023-03-04T08:19:05.102Z,11.10
2023-03-04T08:21:34.181Z,11.20
2023-03-04T08:24:05.035Z,11.30
2023-03-04T08:26:40.900Z,11.30
2023-03-04T08:29:11.089Z,11.40
2023-03-04T08:31:39.780Z,11.50
2023-03-04T08:34:13.420Z,11.60
2023-03-04T08:36:45.509Z,11.60
2023-03-04T08:39:14.793Z,11.70
2023-03-04T08:41:43.996Z,11.70
2023-03-04T08:44:12.336Z,11.80
2023-03-04T08:46:41.720Z,11.80
2023-03-04T08:49:12.824Z,11.90
2023-03-04T08:51:41.466Z,11.90
2023-03-04T08:54:10.250Z,12.00
2023-03-04T08:56:38.609Z,12.10
2023-03-04T08:59:07.183Z,12.10
2023-03-04T09:01:42.857Z,12.20
2023-03-04T09:04:10.644Z,12.30
2023-03-04T09:06:39.629Z,12.40
2023-03-04T09:09:07.672Z,12.40
2023-03-04T09:11:42.569Z,12.50
2023-03-04T09:14:10.618Z,12.50
2023-03-04T09:16:38.881Z,12.60
2023-03-04T09:19:07.437Z,12.70
2023-03-04T09:21:35.226Z,12.70
2023-03-04T09:24:03.870Z,12.70
2023-03-04T09:26:31.634Z,12.70
2023-03-04T09:29:04.376Z,12.80
2023-03-04T09:31:32.499Z,12.90
2023-03-04T09:34:15.212Z,12.90
2023-03-04T09:36:43.288Z,13.00
2023-03-04T09:41:56.272Z,13.10
2023-03-04T09:44:37.093Z,13.10
2023-03-04T09:47:08.873Z,13.20
2023-03-04T09:50:01.535Z,13.20
2023-03-04T09:52:36.535Z,13.20
2023-03-04T09:55:32.460Z,13.30
2023-03-04T09:58:31.676Z,13.30
2023-03-04T10:01:05.356Z,13.30
2023-03-04T10:04:02.403Z,13.30
2023-03-04T10:06:32.821Z,13.30
2023-03-04T10:09:04.399Z,13.40
2023-03-04T10:11:51.516Z,13.30
2023-03-04T10:14:26.208Z,13.40
2023-03-04T10:17:01.983Z,13.40
2023-03-04T10:19:55.584Z,13.40
2023-03-04T10:22:33.435Z,13.50
2023-03-04T10:25:05.291Z,13.40
2023-03-04T10:27:33.387Z,13.50
2023-03-04T10:30:01.632Z,13.60
2023-03-04T10:32:29.476Z,13.60
2023-03-04T10:35:00.696Z,13.70
2023-03-04T10:37:32.238Z,13.80
2023-03-04T10:40:04.888Z,13.80
2023-03-04T10:42:37.987Z,13.90
2023-03-04T10:45:10.172Z,13.90
2023-03-04T10:47:38.196Z,14.00
2023-03-04T10:50:10.395Z,14.00
2023-03-04T10:52:56.321Z,14.10
2023-03-04T10:55:30.827Z,14.10
2023-03-04T10:58:04.270Z,14.00
2023-03-04T11:00:35.474Z,14.10
2023-03-04T11:03:22.682Z,14.20
2023-03-04T11:05:51.479Z,14.20
2023-03-04T11:08:21.604Z,14.30
2023-03-04T11:10:53.520Z,14.30
2023-03-04T11:13:25.414Z,14.40
2023-03-04T11:16:03.036Z,14.40
2023-03-04T11:21:31.765Z,14.60
2023-03-04T11:24:03.225Z,14.60
2023-03-04T11:26:50.143Z,14.60
2023-03-04T11:29:21.651Z,14.60
2023-03-04T11:31:56.647Z,14.70
2023-03-04T11:34:26.596Z,14.70
2023-03-04T11:37:17.518Z,14.70
2023-03-04T11:39:49.172Z,14.70
2023-03-04T11:42:53.237Z,14.90
2023-03-04T11:45:54.725Z,14.90
2023-03-04T11:48:47.672Z,15.00
2023-03-04T11:51:19.621Z,15.10
2023-03-04T11:54:26.474Z,15.20
2023-03-04T11:57:01.782Z,15.30
2023-03-04T11:59:57.669Z,15.40
2023-03-04T12:02:32.780Z,15.50
2023-03-04T12:05:30.151Z,15.30
2023-03-04T12:08:27.631Z,15.10
2023-03-04T12:11:32.636Z,15.00
2023-03-04T12:14:13.466Z,15.00
2023-03-04T12:17:04.195Z,15.10
2023-03-04T12:19:38.863Z,15.20
2023-03-04T12:22:23.045Z,15.40
2023-03-04T12:25:18.117Z,15.60
2023-03-04T12:28:06.553Z,15.70
2023-03-04T12:30:58.454Z,15.80
2023-03-04T12:33:54.401Z,15.60
2023-03-04T12:36:41.534Z,15.50
2023-03-04T12:39:34.347Z,15.60
2023-03-04T12:42:11.361Z,15.50
2023-03-04T12:44:48.962Z,15.60
2023-03-04T12:47:40.798Z,15.80
2023-03-04T12:50:12.603Z,16.00
2023-03-04T12:52:52.904Z,16.10
2023-03-04T12:55:25.729Z,16.20
2023-03-04T12:57:56.455Z,16.30
2023-03-04T13:00:44.326Z,16.50
2023-03-04T13:03:25.786Z,16.70
2023-03-04T13:06:12.900Z,16.70
2023-03-04T13:08:53.441Z,16.90
2023-03-04T13:11:31.560Z,17.30
2023-03-04T13:14:05.915Z,17.50
2023-03-04T13:16:45.242Z,17.40
2023-03-04T13:19:34.156Z,17.60
2023-03-04T13:22:01.956Z,17.60
2023-03-04T13:24:52.346Z,17.90
2023-03-04T13:30:10.494Z,17.80
2023-03-04T13:32:42.630Z,17.60
2023-03-04T13:35:49.381Z,17.60
2023-03-04T13:38:24.158Z,17.70
2023-03-04T13:41:17.461Z,18.10
2023-03-04T13:44:00.055Z,18.30
2023-03-04T13:46:31.667Z,18.40
2023-03-04T13:49:03.529Z,18.50
2023-03-04T13:51:37.063Z,18.50
2023-03-04T13:54:14.527Z,18.50
2023-03-04T13:56:51.166Z,18.50
2023-03-04T13:59:25.736Z,18.70
2023-03-04T14:02:01.492Z,18.70
2023-03-04T14:04:33.661Z,18.70
2023-03-04T14:07:05.292Z,18.90
2023-03-04T14:09:35.365Z,19.00
2023-03-04T14:12:06.033Z,19.30
2023-03-04T14:14:55.655Z,19.60
2023-03-04T14:17:29.880Z,19.40
2023-03-04T14:19:58.374Z,19.60
2023-03-04T14:22:36.045Z,19.60
2023-03-04T14:25:10.988Z,19.60
2023-03-04T14:27:38.746Z,19.70
2023-03-04T14:30:39.190Z,19.80
2023-03-04T14:32:58.752Z,20.10
2023-03-04T14:35:28.837Z,20.30
2023-03-04T14:38:04.071Z,20.40
2023-03-04T14:40:45.110Z,20.20
2023-03-04T14:43:16.953Z,20.20
2023-03-04T14:45:46.864Z,20.40
2023-03-04T14:48:27.426Z,20.60
2023-03-04T14:50:57.126Z,20.80
2023-03-04T14:53:27.911Z,21.10
2023-03-04T14:55:59.098Z,21.50
2023-03-04T14:58:30.455Z,22.20
2023-03-04T15:01:09.915Z,22.60
2023-03-04T15:03:38.005Z,23.30
2023-03-04T15:06:19.222Z,23.40
2023-03-04T15:08:52.154Z,23.80
2023-03-04T15:11:26.619Z,24.00
2023-03-04T15:13:57.998Z,23.60
2023-03-04T15:16:30.268Z,23.90
2023-03-04T15:19:23.102Z,24.00
2023-03-04T15:21:51.702Z,24.10
2023-03-04T15:24:19.778Z,24.30
2023-03-04T15:26:52.149Z,24.10
2023-03-04T15:29:21.722Z,23.80
2023-03-04T15:31:49.901Z,24.10
2023-03-04T15:34:20.231Z,24.30
2023-03-04T15:36:51.483Z,24.20
2023-03-04T15:39:22.015Z,24.50
2023-03-04T15:41:50.940Z,24.60
2023-03-04T15:44:18.992Z,24.00
2023-03-04T15:46:50.582Z,23.80
2023-03-04T15:49:19.052Z,24.00
2023-03-04T15:51:47.324Z,23.70
2023-03-04T15:54:15.267Z,23.80
2023-03-04T15:56:44.380Z,23.70
2023-03-04T15:59:15.037Z,23.40
2023-03-04T16:01:45.192Z,23.10
2023-03-04T16:04:18.053Z,22.80
2023-03-04T16:06:47.366Z,22.80
2023-03-04T16:09:17.784Z,22.90
2023-03-04T16:11:47.938Z,22.50
2023-03-04T16:14:16.981Z,22.10
2023-03-04T16:16:46.556Z,21.70
2023-03-04T16:19:15.139Z,21.60
2023-03-04T16:21:43.167Z,21.30
2023-03-04T16:24:20.186Z,20.70
2023-03-04T16:26:49.310Z,20.40
2023-03-04T16:29:17.614Z,20.50
2023-03-04T16:31:45.433Z,20.50
2023-03-04T16:34:14.149Z,20.40
2023-03-04T16:36:43.360Z,20.40
2023-03-04T16:39:18.522Z,20.00
2023-03-04T16:41:48.358Z,19.80
2023-03-04T16:44:16.483Z,19.60
2023-03-04T16:46:44.356Z,19.50
2023-03-04T16:49:12.928Z,19.20
2023-03-04T16:51:46.967Z,18.90
2023-03-04T16:54:21.975Z,18.60
2023-03-04T16:56:50.006Z,18.20
2023-03-04T16:59:17.739Z,17.80
2023-03-04T17:01:45.606Z,17.60
2023-03-04T17:04:13.438Z,17.40
2023-03-04T17:06:42.370Z,17.20
2023-03-04T17:09:11.661Z,17.10
2023-03-04T17:11:40.370Z,17.00
2023-03-04T17:14:08.398Z,16.80
2023-03-04T17:16:37.244Z,16.70
2023-03-04T17:19:08.489Z,16.60
2023-03-04T17:21:36.262Z,16.50
2023-03-04T17:24:04.192Z,16.50
2023-03-04T17:26:35.517Z,16.40
2023-03-04T17:29:03.670Z,16.40
2023-03-04T17:31:31.496Z,16.40
2023-03-04T17:33:59.435Z,16.40
2023-03-04T17:36:27.137Z,16.30
2023-03-04T17:38:55.199Z,16.20
2023-03-04T17:41:25.273Z,16.10
2023-03-04T17:43:58.404Z,16.00
2023-03-04T17:46:29.523Z,15.90
2023-03-04T17:49:02.284Z,15.70
2023-03-04T17:51:33.454Z,15.60
2023-03-04T17:54:02.162Z,15.50
2023-03-04T17:56:33.432Z,15.40
2023-03-04T17:59:03.486Z,15.30
2023-03-04T18:01:38.234Z,15.20
2023-03-04T18:04:09.428Z,15.10
2023-03-04T18:06:54.998Z,15.00
2023-03-04T18:09:24.355Z,14.90
2023-03-04T18:11:55.818Z,14.80
2023-03-04T18:14:41.665Z,14.70
2023-03-04T18:17:12.261Z,14.60
2023-03-04T18:19:41.009Z,14.50
2023-03-04T18:22:09.669Z,14.40
2023-03-04T18:24:39.034Z,14.40
2023-03-04T18:27:07.557Z,14.30
2023-03-04T18:29:37.689Z,14.20
2023-03-04T18:32:06.121Z,14.20
2023-03-04T18:34:33.964Z,14.10
2023-03-04T18:37:05.390Z,14.10
2023-03-04T18:39:33.436Z,14.00
2023-03-04T18:42:03.036Z,14.00
2023-03-04T18:44:31.000Z,13.90
2023-03-04T18:47:02.162Z,13.80
2023-03-04T18:49:30.180Z,13.80
2023-03-04T18:51:58.048Z,13.70
2023-03-04T18:54:27.373Z,13.70
2023-03-04T18:57:04.857Z,13.70
2023-03-04T18:59:39.784Z,13.60
2023-03-04T19:02:11.325Z,13.60
2023-03-04T19:04:39.144Z,13.60
2023-03-04T19:07:07.008Z,13.50
2023-03-04T19:09:44.478Z,13.50
2023-03-04T19:12:15.419Z,13.50
2023-03-04T19:14:45.145Z,13.40
2023-03-04T19:17:14.761Z,13.40
2023-03-04T19:19:44.145Z,13.40
2023-03-04T19:22:13.038Z,13.40
2023-03-04T19:24:42.588Z,13.30
2023-03-04T19:27:12.431Z,13.30
2023-03-04T19:29:40.548Z,13.30
2023-03-04T19:32:08.889Z,13.30
2023-03-04T19:34:36.594Z,13.30
2023-03-04T19:37:04.979Z,13.20
2023-03-04T19:39:32.457Z,13.20
2023-03-04T19:42:00.408Z,13.20
2023-03-04T19:44:28.531Z,13.20
2023-03-04T19:46:57.549Z,13.20
2023-03-04T19:49:25.706Z,13.20
2023-03-04T19:51:56.330Z,13.20
2023-03-04T19:54:30.846Z,13.10
2023-03-04T19:56:59.499Z,13.10
2023-03-04T19:59:27.604Z,13.10
2023-03-04T20:01:55.866Z,13.00
2023-03-04T20:04:23.659Z,12.90
2023-03-04T20:06:51.858Z,12.90
2023-03-04T20:09:20.397Z,12.90
2023-03-04T20:11:59.274Z,12.90
2023-03-04T20:14:19.674Z,12.90
2023-03-04T20:16:48.754Z,12.80
2023-03-04T20:19:17.106Z,12.80
2023-03-04T20:21:45.115Z,12.80
2023-03-04T20:24:15.419Z,12.70
2023-03-04T20:26:43.802Z,12.70
2023-03-04T20:29:16.147Z,12.70
2023-03-04T20:31:45.107Z,12.70
2023-03-04T20:34:13.822Z,12.70
2023-03-04T20:36:41.948Z,12.60
2023-03-04T20:39:28.010Z,12.60
2023-03-04T20:41:44.116Z,12.60
2023-03-04T20:44:12.225Z,12.60
2023-03-04T20:46:45.703Z,12.60
2023-03-04T20:49:24.222Z,12.50
2023-03-04T20:52:08.426Z,12.50
2023-03-04T20:54:38.673Z,12.50
2023-03-04T20:57:08.303Z,12.40
2023-03-04T20:59:38.175Z,12.40
2023-03-04T21:02:14.276Z,12.40
2023-03-04T21:04:42.123Z,12.40
2023-03-04T21:07:15.002Z,12.40
2023-03-04T21:09:44.525Z,12.40
2023-03-04T21:12:12.394Z,12.40
2023-03-04T21:14:41.028Z,12.40
2023-03-04T21:17:09.925Z,12.30
2023-03-04T21:19:42.330Z,12.30
2023-03-04T21:22:19.225Z,12.30
2023-03-04T21:24:48.182Z,12.30
2023-03-04T21:27:17.291Z,12.20
2023-03-04T21:29:45.260Z,12.20
2023-03-04T21:32:24.560Z,12.20
2023-03-04T21:34:51.350Z,12.10
2023-03-04T21:37:20.754Z,12.00
2023-03-04T21:39:49.613Z,12.00
2023-03-04T21:42:19.050Z,12.00
2023-03-04T21:44:51.265Z,12.00
2023-03-04T21:47:16.726Z,12.00
2023-03-04T21:49:46.462Z,12.00
2023-03-04T21:52:15.592Z,12.00
2023-03-04T21:54:43.772Z,12.00
2023-03-04T21:57:17.514Z,11.90
2023-03-04T21:59:47.205Z,11.90
2023-03-04T22:02:24.887Z,11.80
2023-03-04T22:04:54.011Z,11.90
2023-03-04T22:07:21.675Z,11.80
2023-03-04T22:09:49.881Z,11.80
2023-03-04T22:12:20.008Z,11.80
2023-03-04T22:14:47.748Z,11.80
2023-03-04T22:17:16.341Z,11.80
2023-03-04T22:19:45.187Z,11.80
2023-03-04T22:22:15.585Z,11.80
2023-03-04T22:24:44.031Z,11.70
2023-03-04T22:27:15.651Z,11.70
2023-03-04T22:29:47.105Z,11.70
2023-03-04T22:32:20.643Z,11.70
2023-03-04T22:34:48.880Z,11.60
2023-03-04T22:37:18.452Z,11.60
2023-03-04T22:39:46.647Z,11.60
2023-03-04T22:42:15.120Z,11.60
2023-03-04T22:44:45.062Z,11.60
2023-03-04T22:47:24.100Z,11.50
2023-03-04T22:49:52.489Z,11.60
2023-03-04T22:52:24.737Z,11.60
2023-03-04T22:54:53.280Z,11.60
2023-03-04T22:57:21.297Z,11.50
2023-03-04T22:59:49.375Z,11.50
2023-03-04T23:02:17.337Z,11.50
2023-03-04T23:04:45.695Z,11.50
2023-03-04T23:07:13.462Z,11.40
2023-03-04T23:09:42.131Z,11.40
2023-03-04T23:12:21.565Z,11.40
2023-03-04T23:14:53.175Z,11.40
2023-03-04T23:17:24.396Z,11.40
2023-03-04T23:19:52.910Z,11.40
2023-03-04T23:22:22.090Z,11.30
2023-03-04T23:24:50.076Z,11.30
2023-03-04T23:27:18.515Z,11.30
2023-03-04T23:29:46.723Z,11.30
2023-03-04T23:32:14.994Z,11.30
2023-03-04T23:34:42.933Z,11.30
2023-03-04T23:37:13.026Z,11.20
2023-03-04T23:39:42.209Z,11.20
2023-03-04T23:42:10.502Z,11.20
2023-03-04T23:44:38.460Z,11.20
2023-03-04T23:47:06.771Z,11.20
2023-03-04T23:49:34.607Z,11.10
2023-03-04T23:52:02.619Z,11.10
2023-03-04T23:54:31.556Z,11.10
2023-03-04T23:57:01.397Z,11.10
2023-03-04T23:59:29.939Z,11.00
